Latest Weather Observations for Trepell

IDQ60801

Issued at 4:02 am EST Thursday 11 February 2016 (issued every 30 minutes, with the page automatically refreshed every 10 minutes)

About weather observations | Map of weather stations | Latest weather observations for QLD | Other Formats
Station Details ID: 037036 Name: TREPELL AIRPORT Lat: -21.84 Lon: 140.89 Height: 266.2 m
Data from the previous 72 hours. | See also: Recent months at Trepell
Date/Time
EST
Temp
°C
App
Temp
°C
Dew
Point
Rel
Hum
%
Delta-T
°C
Wind Press
QNH
hPa
Press
MSL
hPa
Rain
since 9 am
mm
Dir
 
Spd
km/h
Gust
km/h
Spd
kts
Gust
kts
11/04:00am 24.6 24.5 15.0 55 5.8 NE 9 11 5 6 1009.1 1007.1 0.0
11/03:30am 24.9 24.7 14.7 53 6.2 NE 9 9 5 5 1009.1 1007.1 0.0
11/03:00am 25.4 25.5 14.5 51 6.6 NE 7 9 4 5 1009.0 1006.9 0.0
11/02:30am 25.6 25.3 14.4 50 6.7 ENE 9 11 5 6 1009.0 1006.9 0.0
11/02:00am 25.7 25.1 13.5 46 7.3 NE 9 11 5 6 1009.0 1006.9 0.0
11/01:30am 27.0 25.5 13.0 42 8.3 E 13 13 7 7 1009.1 1007.1 0.0
11/01:00am 27.4 27.5 14.4 45 7.9 ENE 7 7 4 4 1009.1 1007.1 0.0
11/12:30am 28.0 28.3 13.5 41 8.7 ENE 4 6 2 3 1009.0 1006.9 0.0
11/12:00am 28.1 27.8 13.2 39 8.9 ENE 7 9 4 5 1009.2 1007.2 0.0
 
Date/Time
EST
Temp
°C
App
Temp
°C
Dew
Point
Rel
Hum
%
Delta-T
°C
Wind Press
QNH
hPa
Press
MSL
hPa
Rain
since 9 am
mm
Dir
 
Spd
km/h
Gust
km/h
Spd
kts
Gust
kts
10/11:30pm 28.9 27.8 13.2 38 9.4 ENE 11 13 6 7 1009.3 1007.3 0.0
10/11:00pm 29.9 28.3 12.8 35 10.2 ENE 13 15 7 8 1009.4 1007.4 0.0
10/10:30pm 30.4 28.9 13.2 35 10.4 ENE 13 17 7 9 1009.3 1007.3 0.0
10/10:00pm 29.8 28.3 13.1 36 10.0 NE 13 19 7 10 1009.1 1007.1 0.0
10/09:30pm 30.6 28.9 11.1 30 11.4 ENE 11 24 6 13 1008.8 1006.7 0.0
10/09:00pm 31.5 30.3 10.2 27 12.3 E 7 9 4 5 1008.3 1006.2 0.0
10/08:30pm 32.8 30.1 10.2 25 13.1 ESE 15 17 8 9 1008.1 1006.0 0.0
10/08:00pm 33.8 30.4 10.4 24 13.7 ESE 19 22 10 12 1007.7 1005.7 0.0
10/07:30pm 34.6 29.8 10.4 23 14.2 ESE 26 35 14 19 1007.4 1005.4 0.0
10/07:00pm 35.3 30.7 9.7 21 15.0 ESE 24 33 13 18 1007.0 1005.0 0.0
10/06:30pm 35.9 32.2 9.4 20 15.4 SE 19 28 10 15 1006.6 1004.6 0.0
10/06:00pm 36.5 32.7 9.9 20 15.7 SE 20 26 11 14 1006.3 1004.3 0.0
10/05:30pm 36.3 31.5 9.0 19 15.8 SE 24 33 13 18 1006.2 1004.2 0.0
10/05:00pm 36.4 32.4 9.1 19 15.9 SE 20 35 11 19 1006.1 1004.1 0.0
10/04:30pm 36.8 33.3 10.2 20 15.7 ESE 19 28 10 15 1006.1 1004.1 0.0
10/04:00pm 36.7 33.2 10.1 20 15.7 SE 19 32 10 17 1006.4 1004.4 0.0
10/03:30pm 35.7 32.0 10.0 21 15.1 ESE 20 30 11 16 1006.8 1004.8 0.0
10/03:00pm 36.1 31.9 9.6 20 15.5 SE 22 32 12 17 1007.0 1005.0 0.0
10/02:30pm 36.2 32.8 10.4 21 15.2 E 19 30 10 16 1007.3 1005.3 0.0
10/02:00pm 36.0 32.7 10.9 22 15.0 ESE 19 28 10 15 1007.9 1005.9 0.0
10/01:30pm 35.9 32.6 10.9 22 14.9 ESE 19 35 10 19 1008.4 1006.3 0.0
10/01:00pm 36.4 33.6 11.3 22 15.1 ENE 17 24 9 13 1008.8 1006.7 0.0
10/12:30pm 35.6 33.5 12.5 24 14.0 ENE 15 24 8 13 1009.2 1007.2 0.0
10/12:00pm 36.2 33.5 13.6 25 14.0 ENE 20 32 11 17 1009.6 1007.6 0.0
10/11:30am 34.0 31.5 13.5 29 12.6 ENE 19 28 10 15 1010.0 1008.0 0.0
10/11:00am 33.3 31.1 14.4 32 11.7 NNE 19 24 10 13 1010.4 1008.4 0.0
10/10:30am 32.7 30.8 15.7 36 10.7 NE 20 28 11 15 1010.6 1008.6 0.0
10/10:00am 31.6 29.4 16.0 39 9.8 NE 22 30 12 16 1010.8 1008.8 0.0
10/09:30am 31.6 29.4 16.0 39 9.8 ENE 22 30 12 16 1011.0 1009.0 0.0
10/09:00am 30.6 28.7 15.8 40 9.3 E 20 24 11 13 1010.9 1008.9 3.6
10/08:30am 29.4 28.4 16.6 46 8.1 E 17 24 9 13 1010.8 1008.8 3.6
10/08:00am 27.6 28.0 17.2 53 6.6 E 11 13 6 7 1010.7 1008.7 3.6
10/07:30am 26.6 27.8 18.2 60 5.4 ESE 9 9 5 5 1010.3 1008.3 3.6
10/07:00am 26.4 27.6 18.3 61 5.2 ESE 9 11 5 6 1009.9 1007.9 3.6
10/06:30am 25.0 26.7 18.4 66 4.2 SSE 7 11 4 6 1009.4 1007.4 3.6
10/06:00am 25.1 26.8 18.5 67 4.2 SSW 7 9 4 5 1009.3 1007.3 3.6
10/05:30am 25.5 27.1 19.2 68 4.1 SSW 9 11 5 6 1009.0 1006.9 3.6
10/05:00am 25.4 28.8 19.3 69 4.0 CALM 0 7 0 4 1008.6 1006.5 3.6
10/04:30am 25.6 28.5 19.9 70 3.7 ESE 4 6 2 3 1008.5 1006.4 3.6
10/04:00am 25.6 28.1 20.2 72 3.6 E 7 7 4 4 1008.5 1006.4 3.6
10/03:30am 26.0 28.7 20.3 71 3.8 ENE 6 9 3 5 1008.6 1006.5 3.6
10/03:00am 26.6 28.6 20.0 67 4.3 NE 9 11 5 6 1008.6 1006.5 3.6
10/02:30am 26.8 27.9 19.7 65 4.7 NNE 13 15 7 8 1008.4 1006.3 3.6
10/02:00am 26.4 27.7 19.3 65 4.6 NNE 11 13 6 7 1008.6 1006.5 3.6
10/01:30am 26.8 28.3 18.9 62 5.1 NNE 9 13 5 7 1008.8 1006.7 3.6
10/01:00am 27.1 28.1 19.4 62 5.0 NE 13 15 7 8 1008.9 1006.8 3.6
10/12:30am 26.7 27.2 19.3 64 4.8 NNE 15 17 8 9 1009.3 1007.3 3.6
10/12:00am 26.6 26.2 19.0 63 4.9 NNE 19 24 10 13 1009.6 1007.6 3.6
 
Date/Time
EST
Temp
°C
App
Temp
°C
Dew
Point
Rel
Hum
%
Delta-T
°C
Wind Press
QNH
hPa
Press
MSL
hPa
Rain
since 9 am
mm
Dir
 
Spd
km/h
Gust
km/h
Spd
kts
Gust
kts
09/11:30pm 26.3 25.6 19.4 66 4.5 NNE 22 28 12 15 1010.0 1008.0 3.6
09/11:00pm 26.6 24.5 19.7 66 4.5 NNE 30 35 16 19 1010.2 1008.2 3.6
09/10:30pm 26.5 24.7 19.6 66 4.5 NE 28 35 15 19 1010.1 1008.1 3.6
09/10:00pm 28.0 26.7 19.0 58 5.9 ENE 24 32 13 17 1009.7 1007.7 3.6
09/09:30pm 28.1 26.8 19.1 58 5.9 ENE 24 33 13 18 1009.3 1007.3 3.6
09/09:00pm 29.9 28.0 17.7 48 7.9 ESE 24 30 13 16 1009.2 1007.2 3.6
09/08:43pm 30.7 29.9 18.1 47 8.2 ESE 19 33 10 18 1009.0 1006.9 3.6
09/08:30pm 30.3 32.4 19.3 51 7.2 ESE 7 9 4 5 1008.5 1006.4 3.6
09/08:00pm 31.2 30.6 17.5 44 8.8 SSE 17 22 9 12 1008.3 1006.2 3.6
09/07:30pm 31.3 34.0 20.6 53 7.2 NNE 7 11 4 6 1007.5 1005.5 3.6
09/07:00pm 31.6 32.8 19.9 50 7.8 NNE 13 17 7 9 1007.3 1005.3 3.6
09/06:30pm 32.6 33.4 19.1 44 8.9 NNE 13 17 7 9 1007.0 1005.0 3.6
09/06:00pm 33.4 33.9 18.3 40 9.9 NE 13 20 7 11 1006.7 1004.7 3.6
09/05:30pm 33.5 35.1 19.2 43 9.5 NNE 9 15 5 8 1006.8 1004.8 3.6
09/05:00pm 33.6 34.8 20.0 44 9.1 NNE 13 17 7 9 1006.7 1004.7 3.6
09/04:30pm 32.5 32.5 19.0 44 8.9 NNE 17 24 9 13 1006.8 1004.8 3.6
09/04:00pm 32.6 31.9 19.5 46 8.7 NE 22 28 12 15 1007.0 1005.0 3.6
09/03:30pm 32.4 32.5 20.3 48 8.1 NNE 20 28 11 15 1007.2 1005.2 3.6
09/03:00pm 29.2 28.0 20.9 61 5.6 NNE 28 33 15 18 1007.6 1005.6 3.6
09/02:35pm 27.8 25.1 20.4 64 4.9 NE 35 50 19 27 1008.2 1006.1 3.6
09/02:30pm 28.0 26.0 21.1 66 4.6 NE 33 50 18 27 1008.4 1006.3 3.6
09/02:26pm 28.6 26.5 20.6 62 5.3 NE 32 50 17 27 1008.5 1006.4 3.6
09/02:18pm 27.9 25.3 19.4 60 5.6 ENE 32 69 17 37 1008.6 1006.5 3.6
09/02:16pm 27.8 25.0 18.2 56 6.2 E 30 69 16 37 1008.9 1006.8 3.2
09/02:14pm 27.9 26.7 18.3 56 6.2 E 22 69 12 37 1008.3 1006.2 2.0
09/02:13pm 29.6 28.8 17.1 47 8.0 E 17 59 9 32 1008.3 1006.2 1.4
09/02:00pm 35.6 35.2 15.3 29 12.9 ENE 11 22 6 12 1008.3 1006.2 0.0
09/01:30pm 36.9 37.2 17.0 31 12.9 NE 11 22 6 12 1008.7 1006.6 0.0
09/01:00pm 35.4 35.6 16.7 33 12.1 NE 11 15 6 8 1009.2 1007.2 0.0
09/12:30pm 34.6 35.0 17.3 35 11.2 ENE 11 22 6 12 1009.6 1007.6 0.0
09/12:00pm 34.4 34.6 17.6 37 10.9 ENE 13 24 7 13 1010.0 1008.0 0.0
09/11:30am 34.5 34.9 18.9 39 10.3 NE 15 24 8 13 1010.5 1008.5 0.0
09/11:00am 33.7 34.0 19.7 43 9.4 NE 17 26 9 14 1010.9 1008.9 0.0
09/10:30am 32.9 32.9 19.7 45 8.8 NE 19 24 10 13 1011.3 1009.3 0.0
09/10:00am 32.0 32.8 19.9 48 8.1 ENE 15 22 8 12 1011.4 1009.4 0.0
09/09:30am 31.6 32.2 20.2 50 7.6 ENE 17 26 9 14 1011.6 1009.6 0.0
09/09:00am 31.1 31.6 20.1 52 7.3 E 17 24 9 13 1011.6 1009.6 0.4
09/08:30am 30.0 29.9 20.0 55 6.6 E 20 26 11 14 1011.5 1009.5 0.4
09/08:00am 29.2 29.2 19.8 57 6.2 ESE 19 24 10 13 1011.3 1009.3 0.4
09/07:30am 28.3 28.3 19.8 60 5.6 ESE 19 28 10 15 1011.0 1009.0 0.4
09/07:00am 27.1 28.8 20.2 66 4.6 E 11 15 6 8 1010.6 1008.6 0.4
09/06:30am 25.8 27.6 20.4 72 3.6 E 11 13 6 7 1010.3 1008.3 0.4
09/06:00am 25.8 27.4 20.8 74 3.3 E 13 15 7 8 1009.9 1007.9 0.4
09/05:30am 25.3 29.2 21.8 81 2.4 N 4 6 2 3 1009.9 1007.9 0.4
09/05:00am 25.4 28.9 22.1 82 2.2 NE 7 9 4 5 1009.8 1007.8 0.4
09/04:30am 25.4 30.1 21.9 81 2.4 CALM 0 0 0 0 1009.6 1007.6 0.4
09/04:00am 25.4 29.7 21.9 81 2.4 NNE 2 6 1 3 1009.6 1007.6 0.4
09/03:30am 25.4 27.9 21.7 80 2.5 NNE 11 13 6 7 1009.8 1007.8 0.4
09/03:00am 26.3 28.2 21.3 74 3.4 ENE 13 17 7 9 1009.8 1007.8 0.4
09/02:30am 25.6 26.4 21.3 77 2.9 NE 19 22 10 12 1010.0 1008.0 0.4
09/02:00am 24.9 25.9 21.8 83 2.1 NNE 19 24 10 13 1010.1 1008.1 0.4
09/01:30am 24.5 25.3 21.8 85 1.8 NNE 20 28 11 15 1010.3 1008.3 0.4
09/01:00am 26.1 23.7 20.0 69 4.0 NE 32 44 17 24 1010.2 1008.2 0.0
09/12:30am 30.7 29.6 17.7 45 8.4 E 20 28 11 15 1010.7 1008.7 0.0
09/12:00am 30.9 29.0 17.6 45 8.6 ESE 24 32 13 17 1010.6 1008.6 0.0
 
Date/Time
EST
Temp
°C
App
Temp
°C
Dew
Point
Rel
Hum
%
Delta-T
°C
Wind Press
QNH
hPa
Press
MSL
hPa
Rain
since 9 am
mm
Dir
 
Spd
km/h
Gust
km/h
Spd
kts
Gust
kts
08/11:30pm 31.1 28.0 17.4 44 8.8 ESE 30 39 16 21 1010.6 1008.6 0.0
08/11:00pm 31.7 27.7 17.6 43 9.1 ESE 35 44 19 24 1010.5 1008.5 0.0
08/10:30pm 32.3 27.5 18.5 44 9.0 ESE 41 52 22 28 1010.3 1008.3 0.0
08/10:00pm 32.7 27.0 17.3 39 9.9 ESE 43 54 23 29 1009.7 1007.7 0.0
08/09:58pm 32.9 27.2 17.1 39 10.2 SE 43 54 23 29 1009.6 1007.6 0.0
08/09:46pm 33.6 30.9 15.6 34 11.4 SSE 24 50 13 27 1009.4 1007.4 0.0
08/09:44pm 33.8 31.6 14.8 32 11.9 S 20 43 11 23 1009.3 1007.3 0.0
08/09:30pm 34.1 31.7 10.0 23 14.0 SSW 13 17 7 9 1008.9 1006.8 0.0
08/09:00pm 34.7 32.0 10.5 23 14.3 SSW 15 19 8 10 1008.7 1006.6 0.0
08/08:30pm 35.2 32.5 10.3 22 14.6 SSW 15 20 8 11 1008.3 1006.2 0.0
08/08:00pm 35.5 33.2 10.5 22 14.8 SSW 13 17 7 9 1007.9 1005.9 0.0
08/07:30pm 36.2 33.1 10.4 21 15.2 SSW 17 20 9 11 1007.6 1005.6 0.0
08/07:00pm 37.0 34.7 10.3 20 15.8 SSW 13 22 7 12 1007.1 1005.1 0.0
08/06:30pm 37.8 34.3 10.2 19 16.4 WSW 19 22 10 12 1006.7 1004.7 0.0
08/06:00pm 38.0 35.7 10.4 19 16.5 SSW 13 19 7 10 1006.6 1004.6 0.0
08/05:30pm 38.3 35.7 10.6 19 16.6 SSW 15 26 8 14 1006.6 1004.6 0.0
08/05:00pm 38.9 36.9 10.3 18 17.1 SW 11 19 6 10 1006.6 1004.6 0.0
08/04:30pm 38.4 35.4 10.7 19 16.6 SSW 17 30 9 16 1006.7 1004.7 0.0
08/04:00pm 38.7 36.3 10.1 18 17.0 S 13 20 7 11 1006.9 1004.9 0.0
08/03:30pm 38.7 36.0 11.7 20 16.4 SE 17 26 9 14 1007.0 1005.0 0.0
08/03:00pm 36.7 34.5 10.8 21 15.5 SSE 13 24 7 13 1007.5 1005.5 0.0
08/02:30pm 37.9 36.8 13.2 23 15.3 SE 11 20 6 11 1008.1 1006.0 0.0
08/02:00pm 37.1 35.6 11.8 22 15.3 WSW 11 15 6 8 1008.6 1006.5 0.0
08/01:30pm 36.7 34.9 12.2 23 14.9 ENE 13 22 7 12 1009.2 1007.2 0.0
08/01:00pm 36.1 36.1 15.2 28 13.2 S 9 19 5 10 1009.7 1007.7 0.0
08/12:30pm 35.1 34.4 15.4 30 12.5 S 13 22 7 12 1010.3 1008.3 0.0
08/12:00pm 34.7 33.9 16.1 33 11.9 SE 15 26 8 14 1010.9 1008.9 0.0
08/11:30am 34.6 34.3 17.3 35 11.2 ESE 15 22 8 12 1011.2 1009.2 0.0
08/11:00am 33.0 32.5 16.8 38 10.4 SE 15 22 8 12 1011.5 1009.5 0.0
08/10:30am 32.7 32.4 17.3 39 9.9 SE 15 22 8 12 1011.6 1009.6 0.0
08/10:00am 31.6 31.4 18.6 46 8.5 SE 17 24 9 13 1011.7 1009.7 0.0
08/09:30am 30.4 30.4 18.2 48 7.9 SE 15 20 8 11 1011.8 1009.8 0.0
08/09:00am 29.4 30.0 18.5 52 7.1 SE 13 19 7 10 1011.8 1009.8 0.0
08/08:30am 28.2 28.9 18.9 57 6.1 SSE 13 19 7 10 1011.6 1009.6 0.0
08/08:00am 27.6 28.3 18.9 59 5.7 SSE 13 17 7 9 1011.7 1009.7 0.0
08/07:30am 27.4 27.8 18.9 59 5.5 SSE 15 19 8 10 1011.2 1009.2 0.0
08/07:00am 26.8 27.2 18.9 62 5.1 SSE 15 17 8 9 1011.1 1009.1 0.0
08/06:30am 26.7 26.8 19.1 63 4.9 SE 17 20 9 11 1010.6 1008.6 0.0
08/06:00am 26.8 26.8 18.9 62 5.1 SE 17 20 9 11 1010.3 1008.3 0.0
08/05:30am 27.3 26.9 19.4 62 5.2 SE 20 24 11 13 1010.0 1008.0 0.0
08/05:00am 27.5 27.3 19.3 61 5.4 SSE 19 24 10 13 1009.9 1007.9 0.0
08/04:30am 28.0 26.8 19.2 58 5.7 SE 24 30 13 16 1009.7 1007.7 0.0

Other Formats:

Comma delimited format used in spreadsheet applications
http://www.bom.gov.au/fwo/IDQ60801/IDQ60801.94338.axf

JavaScript Object Notation format (JSON) in row-major order
http://www.bom.gov.au/fwo/IDQ60801/IDQ60801.94338.json